Terminal Aerodrome Forecast
Issued by NWS

Home | Current Version | Previous Version | Text Only | Print | Product List | Glossary On
Versions: 1 2 3 4 5 6 7 8 9 10 11 12 13 14 15 16
000
FTUS43 KGRR 260500
TAFMKG
TAF
KMKG 260540Z 2606/2706 21009KT P6SM VCSH BKN070
     FM261000 20009KT P6SM BKN025
     FM261600 22011KT P6SM BKN035=

USA.gov is the U.S. government's official web portal to all federal, state and local government web resources and services.